createdAt,value
2019-05-22T00:00:32.316Z,101276.48
2019-05-22T00:03:02.890Z,101273.44
2019-05-22T00:05:38.580Z,101268.00
2019-05-22T00:08:08.590Z,101273.38
2019-05-22T00:10:38.544Z,101268.00
2019-05-22T00:13:08.870Z,101273.44
2019-05-22T00:15:38.964Z,101269.98
2019-05-22T00:18:07.733Z,101271.69
2019-05-22T00:20:36.207Z,101272.56
2019-05-22T00:23:07.078Z,101268.74
2019-05-22T00:25:38.039Z,101266.76
2019-05-22T00:28:07.020Z,101270.95
2019-05-22T00:30:36.882Z,101265.77
2019-05-22T00:33:05.948Z,101277.54
2019-05-22T00:35:34.624Z,101274.34
2019-05-22T00:38:05.581Z,101274.50
2019-05-22T00:40:35.574Z,101274.61
2019-05-22T00:43:12.801Z,101280.51
2019-05-22T00:45:35.734Z,101273.25
2019-05-22T00:48:04.862Z,101273.56
2019-05-22T00:50:40.938Z,101274.13
2019-05-22T00:53:10.872Z,101269.86
2019-05-22T00:55:43.762Z,101276.70
2019-05-22T00:58:13.759Z,101271.83
2019-05-22T01:00:49.712Z,101273.09
2019-05-22T01:03:26.170Z,101274.92
2019-05-22T01:05:55.486Z,101270.84
2019-05-22T01:08:25.414Z,101282.46
2019-05-22T01:10:54.771Z,101276.28
2019-05-22T01:13:23.194Z,101273.45
2019-05-22T01:15:51.742Z,101275.87
2019-05-22T01:18:21.870Z,101275.50
2019-05-22T01:20:52.052Z,101278.27
2019-05-22T01:23:24.877Z,101284.81
2019-05-22T01:25:54.587Z,101288.83
2019-05-22T01:28:24.644Z,101283.02
2019-05-22T01:30:54.724Z,101292.54
2019-05-22T01:33:41.167Z,101295.41
2019-05-22T01:36:11.284Z,101299.80
2019-05-22T01:38:40.736Z,101303.25
2019-05-22T01:41:18.697Z,101300.31
2019-05-22T01:43:48.644Z,101303.52
2019-05-22T01:46:17.002Z,101308.41
2019-05-22T01:48:45.390Z,101304.61
2019-05-22T01:51:14.720Z,101309.52
2019-05-22T01:53:43.874Z,101312.66
2019-05-22T01:56:13.800Z,101314.84
2019-05-22T01:58:42.896Z,101317.41
2019-05-22T02:01:16.318Z,101320.02
2019-05-22T02:03:44.780Z,101322.48
2019-05-22T02:06:14.771Z,101318.25
2019-05-22T02:08:48.023Z,101323.77
2019-05-22T02:11:16.390Z,101323.20
2019-05-22T02:13:55.239Z,101332.35
2019-05-22T02:16:24.958Z,101329.53
2019-05-22T02:18:53.981Z,101332.30
2019-05-22T02:21:23.912Z,101340.20
2019-05-22T02:23:53.010Z,101339.94
2019-05-22T02:26:22.390Z,101333.50
2019-05-22T02:28:50.880Z,101335.44
2019-05-22T02:31:22.074Z,101346.40
2019-05-22T02:34:07.187Z,101345.09
2019-05-22T02:36:37.128Z,101345.61
2019-05-22T02:39:18.248Z,101349.69
2019-05-22T02:41:58.086Z,101353.08
2019-05-22T02:44:27.452Z,101357.62
2019-05-22T02:47:16.338Z,101365.72
2019-05-22T02:49:29.201Z,101358.93
2019-05-22T02:51:58.424Z,101356.52
2019-05-22T02:54:27.537Z,101353.25
2019-05-22T02:56:56.289Z,101364.22
2019-05-22T02:59:25.655Z,101357.83
2019-05-22T03:01:54.510Z,101362.73
2019-05-22T03:04:23.902Z,101360.02
2019-05-22T03:06:53.361Z,101354.01
2019-05-22T03:09:23.288Z,101364.14
2019-05-22T03:11:55.533Z,101361.73
2019-05-22T03:14:25.447Z,101364.79
2019-05-22T03:16:58.114Z,101364.79
2019-05-22T03:19:39.185Z,101376.48
2019-05-22T03:22:25.871Z,101380.25
2019-05-22T03:24:58.033Z,101380.81
2019-05-22T03:27:35.500Z,101388.35
2019-05-22T03:30:04.922Z,101388.74
2019-05-22T03:32:33.298Z,101383.83
2019-05-22T03:35:01.679Z,101384.11
2019-05-22T03:37:29.985Z,101390.85
2019-05-22T03:39:58.462Z,101393.34
2019-05-22T03:42:27.375Z,101395.04
2019-05-22T03:44:56.714Z,101396.63
2019-05-22T03:47:25.846Z,101393.68
2019-05-22T03:49:55.326Z,101394.43
2019-05-22T03:52:25.628Z,101394.13
2019-05-22T03:54:54.288Z,101392.81
2019-05-22T03:57:23.669Z,101397.59
2019-05-22T03:59:52.224Z,101397.06
2019-05-22T04:02:20.677Z,101398.91
2019-05-22T04:04:49.470Z,101397.55
2019-05-22T04:07:19.389Z,101402.75
2019-05-22T04:09:49.488Z,101402.68
2019-05-22T04:12:18.744Z,101407.27
2019-05-22T04:14:47.104Z,101412.05
2019-05-22T04:17:16.158Z,101414.38
2019-05-22T04:19:50.163Z,101414.59
2019-05-22T04:22:17.025Z,101413.06
2019-05-22T04:24:45.849Z,101419.77
2019-05-22T04:27:14.343Z,101416.75
2019-05-22T04:29:43.099Z,101412.45
2019-05-22T04:32:32.428Z,101429.84
2019-05-22T04:35:02.803Z,101430.19
2019-05-22T04:37:32.100Z,101432.64
2019-05-22T04:40:23.493Z,101429.97
2019-05-22T04:42:51.984Z,101432.90
2019-05-22T04:45:20.334Z,101437.46
2019-05-22T04:47:54.238Z,101438.86
2019-05-22T04:50:22.655Z,101438.06
2019-05-22T04:52:51.189Z,101437.98
2019-05-22T04:55:19.963Z,101441.53
2019-05-22T04:57:48.342Z,101444.42
2019-05-22T05:00:16.698Z,101447.63
2019-05-22T05:02:45.262Z,101451.22
2019-05-22T05:05:15.245Z,101452.53
2019-05-22T05:07:44.016Z,101451.97
2019-05-22T05:10:12.366Z,101446.19
2019-05-22T05:12:42.047Z,101448.02
2019-05-22T05:15:11.378Z,101454.20
2019-05-22T05:17:40.351Z,101452.31
2019-05-22T05:20:21.645Z,101456.62
2019-05-22T05:22:44.464Z,101460.11
2019-05-22T05:25:17.629Z,101458.76
2019-05-22T05:27:46.852Z,101456.27
2019-05-22T05:30:16.484Z,101452.67
2019-05-22T05:32:45.241Z,101463.28
2019-05-22T05:35:14.469Z,101466.04
2019-05-22T05:37:42.804Z,101458.71
2019-05-22T05:40:14.378Z,101461.96
2019-05-22T05:42:42.771Z,101465.77
2019-05-22T05:45:13.499Z,101475.24
2019-05-22T05:47:42.021Z,101477.42
2019-05-22T05:50:12.541Z,101483.39
2019-05-22T05:52:42.117Z,101467.66
2019-05-22T05:55:11.973Z,101470.07
2019-05-22T05:57:52.319Z,101465.59
2019-05-22T06:00:27.952Z,101469.37
2019-05-22T06:03:11.652Z,101473.87
2019-05-22T06:05:40.075Z,101478.79
2019-05-22T06:08:08.410Z,101479.45
2019-05-22T06:10:40.976Z,101485.63
2019-05-22T06:13:10.130Z,101490.31
2019-05-22T06:15:48.083Z,101495.48
2019-05-22T06:18:34.678Z,101499.47
2019-05-22T06:21:04.649Z,101497.86
2019-05-22T06:23:39.645Z,101504.61
2019-05-22T06:26:07.947Z,101507.28
2019-05-22T06:28:38.336Z,101511.62
2019-05-22T06:31:10.647Z,101508.20
2019-05-22T06:33:39.309Z,101506.27
2019-05-22T06:36:11.568Z,101509.65
2019-05-22T06:38:54.972Z,101511.75
2019-05-22T06:41:28.469Z,101509.55
2019-05-22T06:44:29.053Z,101515.13
2019-05-22T06:46:58.256Z,101512.23
2019-05-22T06:49:35.577Z,101519.47
2019-05-22T06:52:06.300Z,101515.44
2019-05-22T06:54:34.740Z,101524.69
2019-05-22T06:57:03.126Z,101524.11
2019-05-22T06:59:31.444Z,101524.64
2019-05-22T07:02:01.944Z,101524.64
2019-05-22T07:04:30.486Z,101525.70
2019-05-22T07:06:59.655Z,101533.02
2019-05-22T07:09:29.703Z,101526.22
2019-05-22T07:11:58.656Z,101536.44
2019-05-22T07:14:27.327Z,101537.44
2019-05-22T07:16:56.176Z,101540.07
2019-05-22T07:19:24.987Z,101540.73
2019-05-22T07:21:53.267Z,101538.62
2019-05-22T07:24:22.038Z,101541.87
2019-05-22T07:26:51.563Z,101537.27
2019-05-22T07:29:21.133Z,101538.75
2019-05-22T07:31:49.425Z,101542.48
2019-05-22T07:34:18.647Z,101539.46
2019-05-22T07:36:47.257Z,101543.66
2019-05-22T07:39:15.633Z,101546.59
2019-05-22T07:41:43.913Z,101552.34
2019-05-22T07:44:12.299Z,101555.10
2019-05-22T07:46:40.717Z,101549.31
2019-05-22T07:49:09.029Z,101557.47
2019-05-22T07:51:50.485Z,101560.89
2019-05-22T07:54:08.865Z,101556.38
2019-05-22T07:56:37.209Z,101564.17
2019-05-22T07:59:05.546Z,101571.52
2019-05-22T08:01:33.894Z,101566.33
2019-05-22T08:04:03.414Z,101566.55
2019-05-22T08:06:31.702Z,101572.69
2019-05-22T08:09:00.125Z,101571.38
2019-05-22T08:11:28.434Z,101568.30
2019-05-22T08:13:57.573Z,101574.26
2019-05-22T08:16:26.358Z,101570.56
2019-05-22T08:18:54.678Z,101574.70
2019-05-22T08:21:23.745Z,101583.38
2019-05-22T08:23:52.589Z,101575.80
2019-05-22T08:26:21.132Z,101579.34
2019-05-22T08:28:49.580Z,101577.09
2019-05-22T08:31:18.218Z,101574.80
2019-05-22T08:33:46.732Z,101579.88
2019-05-22T08:36:15.031Z,101580.37
2019-05-22T08:38:43.939Z,101585.50
2019-05-22T08:41:12.868Z,101585.61
2019-05-22T08:44:11.206Z,101588.59
2019-05-22T08:46:12.365Z,101585.77
2019-05-22T08:48:47.472Z,101593.31
2019-05-22T08:51:11.065Z,101595.63
2019-05-22T08:53:47.693Z,101597.45
2019-05-22T08:56:10.426Z,101597.47
2019-05-22T08:58:39.513Z,101593.97
2019-05-22T09:01:09.579Z,101593.66
2019-05-22T09:03:37.925Z,101595.53
2019-05-22T09:06:06.245Z,101599.31
2019-05-22T09:08:34.703Z,101597.09
2019-05-22T09:11:03.792Z,101603.43
2019-05-22T09:13:32.077Z,101609.40
2019-05-22T09:16:01.957Z,101609.08
2019-05-22T09:18:30.928Z,101615.47
2019-05-22T09:20:59.790Z,101613.13
2019-05-22T09:23:28.535Z,101615.20
2019-05-22T09:25:58.454Z,101617.36
2019-05-22T09:28:26.816Z,101614.45
2019-05-22T09:30:55.261Z,101622.39
2019-05-22T09:33:24.418Z,101616.44
2019-05-22T09:35:53.155Z,101612.64
2019-05-22T09:38:21.616Z,101616.73
2019-05-22T09:40:50.096Z,101609.34
2019-05-22T09:43:18.455Z,101620.39
2019-05-22T09:45:46.745Z,101619.47
2019-05-22T09:48:15.122Z,101626.13
2019-05-22T09:50:43.644Z,101621.24
2019-05-22T09:53:11.946Z,101627.14
2019-05-22T09:55:40.361Z,101637.05
2019-05-22T09:58:08.714Z,101630.86
2019-05-22T10:00:37.669Z,101630.23
2019-05-22T10:03:07.084Z,101625.91
2019-05-22T10:05:35.462Z,101625.34
2019-05-22T10:08:04.548Z,101623.01
2019-05-22T10:10:33.023Z,101626.33
2019-05-22T10:13:01.822Z,101622.78
2019-05-22T10:15:31.228Z,101620.36
2019-05-22T10:18:00.362Z,101620.14
2019-05-22T10:20:29.224Z,101619.46
2019-05-22T10:23:12.502Z,101623.18
2019-05-22T10:25:27.663Z,101624.45
2019-05-22T10:27:59.182Z,101619.38
2019-05-22T10:30:27.314Z,101614.36
2019-05-22T10:32:55.670Z,101616.42
2019-05-22T10:35:25.430Z,101616.03
2019-05-22T10:37:54.553Z,101617.74
2019-05-22T10:40:22.982Z,101624.65
2019-05-22T10:42:51.344Z,101626.94
2019-05-22T10:45:19.847Z,101616.37
2019-05-22T10:47:48.829Z,101620.34
2019-05-22T10:50:17.172Z,101629.95
2019-05-22T10:52:46.143Z,101624.34
2019-05-22T10:55:14.432Z,101627.30
2019-05-22T10:57:43.990Z,101626.19
2019-05-22T11:00:13.018Z,101623.34
2019-05-22T11:02:41.773Z,101618.69
2019-05-22T11:05:10.052Z,101625.27
2019-05-22T11:07:38.804Z,101621.70
2019-05-22T11:10:07.360Z,101621.26
2019-05-22T11:12:35.783Z,101624.92
2019-05-22T11:15:08.762Z,101619.61
2019-05-22T11:17:37.954Z,101611.64
2019-05-22T11:20:08.736Z,101615.08
2019-05-22T11:22:37.365Z,101622.75
2019-05-22T11:25:11.415Z,101621.25
2019-05-22T11:27:40.360Z,101619.63
2019-05-22T11:30:11.238Z,101622.00
2019-05-22T11:32:40.189Z,101619.37
2019-05-22T11:35:08.749Z,101620.39
2019-05-22T11:37:37.704Z,101617.44
2019-05-22T11:40:07.030Z,101614.77
2019-05-22T11:42:35.712Z,101624.58
2019-05-22T11:45:05.786Z,101620.91
2019-05-22T11:47:34.768Z,101616.97
2019-05-22T11:50:03.423Z,101616.63
2019-05-22T11:52:31.878Z,101612.67
2019-05-22T11:55:00.835Z,101607.16
2019-05-22T11:57:30.393Z,101610.52
2019-05-22T11:59:58.804Z,101615.13
2019-05-22T12:02:27.136Z,101617.52
2019-05-22T12:04:55.454Z,101607.26
2019-05-22T12:07:24.369Z,101605.42
2019-05-22T12:09:52.705Z,101600.14
2019-05-22T12:12:21.132Z,101597.84
2019-05-22T12:14:49.717Z,101597.23
2019-05-22T12:17:34.802Z,101589.97
2019-05-22T12:19:48.417Z,101593.20
2019-05-22T12:22:19.877Z,101596.53
2019-05-22T12:24:46.736Z,101588.89
2019-05-22T12:27:15.588Z,101595.80
2019-05-22T12:29:44.089Z,101597.19
2019-05-22T12:32:12.706Z,101589.08
2019-05-22T12:34:40.997Z,101589.22
2019-05-22T12:37:09.745Z,101591.70
2019-05-22T12:39:39.086Z,101599.48
2019-05-22T12:42:08.046Z,101599.20
2019-05-22T12:44:37.230Z,101592.23
2019-05-22T12:47:07.155Z,101598.83
2019-05-22T12:49:35.898Z,101594.20
2019-05-22T12:52:06.268Z,101596.98
2019-05-22T12:54:45.998Z,101589.00
2019-05-22T12:57:06.248Z,101591.14
2019-05-22T12:59:34.569Z,101586.22
2019-05-22T13:02:03.126Z,101591.52
2019-05-22T13:04:31.968Z,101596.98
2019-05-22T13:07:00.735Z,101590.46
2019-05-22T13:09:29.289Z,101590.40
2019-05-22T13:11:57.906Z,101584.89
2019-05-22T13:14:26.316Z,101584.49
2019-05-22T13:16:55.347Z,101579.75
2019-05-22T13:19:23.674Z,101586.44
2019-05-22T13:21:53.869Z,101593.35
2019-05-22T13:24:23.166Z,101591.08
2019-05-22T13:26:51.645Z,101592.93
2019-05-22T13:29:20.075Z,101597.20
2019-05-22T13:31:48.725Z,101599.52
2019-05-22T13:34:17.085Z,101596.89
2019-05-22T13:36:45.824Z,101592.09
2019-05-22T13:39:15.241Z,101593.95
2019-05-22T13:41:43.588Z,101596.02
2019-05-22T13:44:12.476Z,101601.96
2019-05-22T13:46:40.925Z,101597.02
2019-05-22T13:49:09.236Z,101591.55
2019-05-22T13:51:37.928Z,101597.51
2019-05-22T13:54:06.470Z,101594.05
2019-05-22T13:56:35.217Z,101600.52
2019-05-22T13:59:03.890Z,101601.94
2019-05-22T14:01:32.179Z,101606.33
2019-05-22T14:04:00.640Z,101609.25
2019-05-22T14:06:28.867Z,101604.42
2019-05-22T14:08:57.155Z,101608.11
2019-05-22T14:11:26.060Z,101607.98
2019-05-22T14:13:54.991Z,101608.78
2019-05-22T14:16:23.862Z,101615.77
2019-05-22T14:18:52.236Z,101620.50
2019-05-22T14:21:21.009Z,101618.89
2019-05-22T14:23:49.305Z,101620.27
2019-05-22T14:26:17.604Z,101620.51
2019-05-22T14:28:45.945Z,101625.22
2019-05-22T14:31:14.336Z,101619.02
2019-05-22T14:33:42.744Z,101617.39
2019-05-22T14:36:11.963Z,101621.17
2019-05-22T14:38:41.015Z,101615.06
2019-05-22T14:41:10.084Z,101610.01
2019-05-22T14:43:38.567Z,101613.17
2019-05-22T14:46:06.950Z,101610.13
2019-05-22T14:48:35.245Z,101608.00
2019-05-22T14:51:04.202Z,101611.96
2019-05-22T14:53:34.036Z,101615.73
2019-05-22T14:56:02.887Z,101607.61
2019-05-22T14:58:31.728Z,101617.61
2019-05-22T15:01:00.026Z,101613.48
2019-05-22T15:03:28.313Z,101609.92
2019-05-22T15:05:56.701Z,101613.39
2019-05-22T15:08:25.099Z,101622.44
2019-05-22T15:10:53.837Z,101624.14
2019-05-22T15:13:22.580Z,101622.49
2019-05-22T15:15:51.253Z,101614.67
2019-05-22T15:18:19.580Z,101619.13
2019-05-22T15:20:49.507Z,101615.12
2019-05-22T15:23:17.812Z,101617.48
2019-05-22T15:25:46.095Z,101615.55
2019-05-22T15:28:14.466Z,101615.91
2019-05-22T15:30:42.919Z,101611.54
2019-05-22T15:33:11.790Z,101605.75
2019-05-22T15:35:40.193Z,101606.22
2019-05-22T15:38:10.419Z,101607.31
2019-05-22T15:40:38.829Z,101610.86
2019-05-22T15:43:09.306Z,101613.75
2019-05-22T15:45:38.592Z,101613.37
2019-05-22T15:48:08.509Z,101612.91
2019-05-22T15:50:37.314Z,101604.90
2019-05-22T15:53:11.841Z,101604.67
2019-05-22T15:55:40.255Z,101604.25
2019-05-22T15:58:08.918Z,101603.02
2019-05-22T16:00:37.868Z,101606.61
2019-05-22T16:03:12.048Z,101605.42
2019-05-22T16:05:41.414Z,101611.27
2019-05-22T16:08:10.067Z,101615.09
2019-05-22T16:10:38.424Z,101606.63
2019-05-22T16:13:09.112Z,101601.83
2019-05-22T16:15:39.072Z,101609.06
2019-05-22T16:18:11.475Z,101609.02
2019-05-22T16:20:38.695Z,101604.89
2019-05-22T16:23:07.268Z,101601.58
2019-05-22T16:25:35.726Z,101610.73
2019-05-22T16:28:04.297Z,101604.75
2019-05-22T16:30:32.653Z,101598.34
2019-05-22T16:33:02.339Z,101598.34
2019-05-22T16:35:31.393Z,101603.43
2019-05-22T16:37:59.690Z,101609.06
2019-05-22T16:40:29.891Z,101609.84
2019-05-22T16:42:59.060Z,101608.83
2019-05-22T16:45:28.964Z,101608.66
2019-05-22T16:47:57.878Z,101614.41
2019-05-22T16:50:26.934Z,101611.78
2019-05-22T16:52:56.451Z,101615.09
2019-05-22T16:55:24.750Z,101608.80
2019-05-22T16:57:53.564Z,101599.40
2019-05-22T17:00:21.979Z,101607.06
2019-05-22T17:02:50.313Z,101605.14
2019-05-22T17:05:19.884Z,101605.50
2019-05-22T17:07:48.232Z,101606.16
2019-05-22T17:10:17.284Z,101602.27
2019-05-22T17:12:46.523Z,101608.00
2019-05-22T17:15:17.615Z,101611.41
2019-05-22T17:17:46.880Z,101610.38
2019-05-22T17:20:17.621Z,101609.27
2019-05-22T17:22:46.180Z,101613.52
2019-05-22T17:25:14.498Z,101616.73
2019-05-22T17:27:44.506Z,101610.23
2019-05-22T17:30:13.711Z,101610.94
2019-05-22T17:32:42.055Z,101608.53
2019-05-22T17:35:10.926Z,101620.55
2019-05-22T17:37:40.196Z,101618.38
2019-05-22T17:40:08.947Z,101618.84
2019-05-22T17:42:37.336Z,101620.86
2019-05-22T17:45:08.618Z,101617.53
2019-05-22T17:47:37.278Z,101620.38
2019-05-22T17:50:25.222Z,101624.94
2019-05-22T17:52:39.522Z,101624.00
2019-05-22T17:55:08.469Z,101625.55
2019-05-22T17:57:37.123Z,101630.56
2019-05-22T18:00:10.598Z,101625.86
2019-05-22T18:02:39.893Z,101632.34
2019-05-22T18:05:08.448Z,101640.16
2019-05-22T18:07:37.056Z,101632.98
2019-05-22T18:10:09.394Z,101635.55
2019-05-22T18:12:38.063Z,101625.66
2019-05-22T18:15:08.177Z,101634.05
2019-05-22T18:17:38.546Z,101642.84
2019-05-22T18:20:08.529Z,101644.70
2019-05-22T18:22:37.679Z,101643.26
2019-05-22T18:25:07.385Z,101639.42
2019-05-22T18:27:35.928Z,101639.14
2019-05-22T18:30:06.993Z,101645.61
2019-05-22T18:32:35.822Z,101641.99
2019-05-22T18:35:05.319Z,101643.06
2019-05-22T18:37:34.432Z,101642.30
2019-05-22T18:40:03.626Z,101646.70
2019-05-22T18:42:33.725Z,101641.08
2019-05-22T18:45:02.249Z,101640.77
2019-05-22T18:47:30.756Z,101641.74
2019-05-22T18:49:59.526Z,101650.80
2019-05-22T18:52:40.693Z,101646.87
2019-05-22T18:54:58.225Z,101649.32
2019-05-22T18:57:28.311Z,101648.08
2019-05-22T19:00:02.471Z,101647.37
2019-05-22T19:02:27.206Z,101645.14
2019-05-22T19:04:55.639Z,101647.34
2019-05-22T19:07:24.596Z,101643.78
2019-05-22T19:09:53.030Z,101643.87
2019-05-22T19:12:21.703Z,101648.80
2019-05-22T19:14:50.248Z,101649.13
2019-05-22T19:17:18.830Z,101657.05
2019-05-22T19:19:47.400Z,101649.00
2019-05-22T19:22:16.420Z,101649.25
2019-05-22T19:24:44.689Z,101651.98
2019-05-22T19:27:14.745Z,101654.94
2019-05-22T19:29:43.188Z,101653.02
2019-05-22T19:32:11.671Z,101654.80
2019-05-22T19:34:40.209Z,101654.06
2019-05-22T19:37:09.284Z,101644.81
2019-05-22T19:39:38.385Z,101652.23
2019-05-22T19:42:07.992Z,101650.04
2019-05-22T19:44:36.465Z,101655.52
2019-05-22T19:47:05.417Z,101658.03
2019-05-22T19:49:33.935Z,101657.08
2019-05-22T19:52:02.557Z,101663.66
2019-05-22T19:54:31.289Z,101661.26
2019-05-22T19:56:59.648Z,101660.92
2019-05-22T19:59:29.800Z,101669.04
2019-05-22T20:01:58.111Z,101665.64
2019-05-22T20:04:27.193Z,101666.70
2019-05-22T20:06:56.083Z,101675.62
2019-05-22T20:09:25.615Z,101677.47
2019-05-22T20:11:54.244Z,101678.16
2019-05-22T20:14:23.052Z,101678.89
2019-05-22T20:16:51.337Z,101670.91
2019-05-22T20:19:19.758Z,101669.30
2019-05-22T20:21:48.077Z,101670.70
2019-05-22T20:24:16.370Z,101673.76
2019-05-22T20:26:44.809Z,101669.88
2019-05-22T20:29:13.833Z,101673.31
2019-05-22T20:31:42.110Z,101670.98
2019-05-22T20:34:10.787Z,101668.06
2019-05-22T20:36:40.539Z,101677.50
2019-05-22T20:39:10.435Z,101682.16
2019-05-22T20:41:38.856Z,101669.59
2019-05-22T20:44:08.071Z,101668.44
2019-05-22T20:46:38.115Z,101668.63
2019-05-22T20:49:06.798Z,101668.03
2019-05-22T20:51:35.240Z,101670.95
2019-05-22T20:54:04.794Z,101667.08
2019-05-22T20:56:34.750Z,101669.73
2019-05-22T20:59:03.686Z,101664.20
2019-05-22T21:01:33.336Z,101668.45
2019-05-22T21:04:04.152Z,101666.16
2019-05-22T21:06:34.688Z,101666.08
2019-05-22T21:09:04.416Z,101672.22
2019-05-22T21:11:33.579Z,101668.84
2019-05-22T21:14:01.991Z,101670.06
2019-05-22T21:16:30.543Z,101661.20
2019-05-22T21:18:59.203Z,101665.45
2019-05-22T21:21:28.231Z,101667.78
2019-05-22T21:24:09.373Z,101669.28
2019-05-22T21:26:27.721Z,101677.56
2019-05-22T21:28:56.003Z,101676.89
2019-05-22T21:31:24.852Z,101678.13
2019-05-22T21:33:54.071Z,101674.16
2019-05-22T21:36:23.965Z,101672.05
2019-05-22T21:38:52.299Z,101675.66
2019-05-22T21:41:21.316Z,101667.23
2019-05-22T21:43:50.881Z,101671.38
2019-05-22T21:46:19.656Z,101674.97
2019-05-22T21:48:49.583Z,101663.56
2019-05-22T21:51:18.755Z,101668.83
2019-05-22T21:53:47.222Z,101667.52
2019-05-22T21:56:15.510Z,101671.91
2019-05-22T21:58:44.226Z,101663.02
2019-05-22T22:01:14.233Z,101666.61
2019-05-22T22:03:44.440Z,101668.07
2019-05-22T22:06:14.686Z,101666.50
2019-05-22T22:08:43.069Z,101667.95
2019-05-22T22:11:11.450Z,101666.64
2019-05-22T22:13:39.765Z,101669.19
2019-05-22T22:16:09.053Z,101669.27
2019-05-22T22:18:38.978Z,101672.58
2019-05-22T22:21:07.822Z,101673.75
2019-05-22T22:23:36.182Z,101673.05
2019-05-22T22:26:20.525Z,101676.66
2019-05-22T22:28:35.879Z,101678.11
2019-05-22T22:31:14.751Z,101673.63
2019-05-22T22:33:45.632Z,101673.75
2019-05-22T22:36:14.271Z,101668.96
2019-05-22T22:38:43.044Z,101670.66
2019-05-22T22:41:12.297Z,101669.69
2019-05-22T22:43:40.850Z,101671.97
2019-05-22T22:46:31.997Z,101678.56
2019-05-22T22:49:01.922Z,101675.33
2019-05-22T22:51:30.318Z,101669.70
2019-05-22T22:53:58.835Z,101672.50
2019-05-22T22:56:29.023Z,101669.88
2019-05-22T22:58:58.406Z,101664.27
2019-05-22T23:01:28.421Z,101671.09
2019-05-22T23:03:56.890Z,101666.30
2019-05-22T23:06:25.237Z,101663.09
2019-05-22T23:08:53.660Z,101668.06
2019-05-22T23:11:22.686Z,101668.13
2019-05-22T23:13:51.034Z,101664.39
2019-05-22T23:16:21.319Z,101659.81
2019-05-22T23:19:14.081Z,101664.22
2019-05-22T23:21:41.471Z,101662.41
2019-05-22T23:24:13.222Z,101660.05
2019-05-22T23:26:43.406Z,101663.89
2019-05-22T23:29:12.842Z,101660.44
2019-05-22T23:31:41.456Z,101661.87
2019-05-22T23:34:09.909Z,101663.02
2019-05-22T23:36:39.166Z,101660.34
2019-05-22T23:39:13.333Z,101663.94
2019-05-22T23:41:42.387Z,101653.94
2019-05-22T23:44:11.783Z,101652.90
2019-05-22T23:46:41.488Z,101650.51
2019-05-22T23:49:10.114Z,101644.91
2019-05-22T23:51:38.416Z,101647.94
2019-05-22T23:54:06.896Z,101642.80
2019-05-22T23:56:36.743Z,101650.47
2019-05-22T23:59:05.057Z,101643.77
